Flight Track Log - Related Links

Times and Time Zones

All times are in EDT time to prevent confusion due to time zone crossing. See the PDT4236 flight status page for this flight to view local times or setup timezone preferences in your user account.

Time Position Orientation Groundspeed Altitude Reporting Facility
EDT Latitude Longitude Course Direction KTS MPH feet Rate Location/Type
Sun 04:28:38 PM 38.2700 -82.5056 171° South 166 191 4,600  Level Indianapolis Center
Sun 04:29:00 PM 38.1376 -82.5030 174° South  Level FlightAware Approximate
Sun 04:29:40 PM 38.2242 -82.4975 172° South 166 191 6,100  Level Indianapolis Center
Sun 04:30:00 PM 38.0805 -82.4897 167° South  Level FlightAware Approximate
Sun 04:30:42 PM 38.1781 -82.4861 169° South 172 198 7,300  Level Indianapolis Center
Sun 04:31:00 PM 38.0239 -82.4735 167° South  Level FlightAware Approximate
Sun 04:31:44 PM 38.1267 -82.4744 170° South 184 212 8,400  Level Indianapolis Center
Sun 04:32:00 PM 37.9577 -82.4615 171° South  Level FlightAware Approximate
Sun 04:32:46 PM 38.0725 -82.4653 172° South 186 214 9,400  Level Indianapolis Center
Sun 04:33:47 PM 38.0094 -82.4531 171° South 194 223 10,600 878 Climbing Indianapolis Center
Sun 04:34:49 PM 37.9506 -82.4400 170° South 208 239 11,200 677 Climbing Indianapolis Center
Sun 04:35:51 PM 37.8856 -82.4258 170° South 231 266 12,000 823 Climbing Indianapolis Center
Sun 04:36:53 PM 37.8206 -82.4111 170° South 238 274 12,900 823 Climbing Indianapolis Center
Sun 04:37:55 PM 37.7547 -82.3978 171° South 238 274 13,700 683 Climbing Indianapolis Center
Sun 04:38:56 PM 37.6881 -82.3831 170° South 243 280 14,300 683 Climbing Indianapolis Center
Sun 04:39:58 PM 37.6200 -82.3683 170° South 247 284 15,100 823 Climbing Indianapolis Center
Sun 04:41:00 PM 37.5433 -82.3542 172° South 239 275 16,000 732 Climbing Indianapolis Center
Sun 04:42:01 PM 37.4764 -82.3417 172° South 240 276 16,600 488 Climbing Indianapolis Center
Sun 04:43:03 PM 37.4072 -82.3264 170° South 249 287 17,000 194 Climbing Indianapolis Center
Sun 04:44:05 PM 37.3328 -82.3114 171° South 265 305 17,000  Level Indianapolis Center
Sun 04:45:06 PM 37.2547 -82.2950 171° South 280 322 17,000  Level Indianapolis Center
Sun 04:46:08 PM 37.1767 -82.2797 171° South 283 326 17,000  Level Indianapolis Center
Sun 04:47:10 PM 37.0972 -82.2619 170° South 287 330 17,000  Level Indianapolis Center
Sun 04:48:12 PM 37.0050 -82.2431 171° South 286 329 17,000  Level Indianapolis Center
Sun 04:49:13 PM 36.9239 -82.2264 171° South 291 335 17,000  Level Indianapolis Center
Sun 04:50:15 PM 36.8444 -82.2111 171° South 288 331 17,000  Level Indianapolis Center
Sun 04:51:17 PM 36.7628 -82.1939 170° South 295 339 17,000 -49 Level Indianapolis Center
Sun 04:52:18 PM 36.6842 -82.1778 171° South 287 330 16,900 -390 Descending Indianapolis Center
Sun 04:53:20 PM 36.6019 -82.1611 171° South 293 337 16,200 -673 Descending Indianapolis Center
Sun 04:53:56 PM 36.5464 -82.1522 173° South 294 338 15,800 -750 Descending Atlanta Center
Sun 04:54:56 PM 36.4628 -82.1364 171° South 294 338 15,000 -800 Descending Atlanta Center
Sun 04:55:56 PM 36.3828 -82.0969 158° South 294 338 14,200 -800 Descending Atlanta Center
Sun 04:56:56 PM 36.3111 -82.0469 151° Southeast 294 338 13,400 -800 Descending Atlanta Center
Sun 04:57:56 PM 36.2375 -82.0000 153° Southeast 306 352 12,600 -800 Descending Atlanta Center
Sun 04:58:56 PM 36.1636 -81.9503 151° Southeast 306 352 11,800 -800 Descending Atlanta Center
Sun 04:59:56 PM 36.0919 -81.9033 152° Southeast 298 343 11,000 -400 Descending Atlanta Center
Sun 05:00:56 PM 36.0200 -81.8567 152° Southeast 292 336 11,000 -150 Level Atlanta Center
Sun 05:01:56 PM 35.9525 -81.8122 152° Southeast 281 323 10,700 -550 Descending Atlanta Center
Sun 05:02:56 PM 35.8828 -81.7681 153° Southeast 281 323 9,900 -769 Descending Atlanta Center
Sun 05:03:53 PM 35.8153 -81.7239 152° Southeast 277 319 9,200 -450 Descending Atlanta Center
Sun 05:04:56 PM 35.7561 -81.6844 152° Southeast 281 323 9,000 -98 Descending Atlanta Center
Sun 05:05:56 PM 35.6928 -81.6453 153° Southeast 262 302 9,000  Level Atlanta Center
Sun 05:06:56 PM 35.6272 -81.6039 153° Southeast 262 302 9,000 -48 Level Atlanta Center
Sun 05:08:02 PM 35.5653 -81.5214 133° Southeast 272 313 8,900 -450 Descending Atlanta Center
Sun 05:08:56 PM 35.5264 -81.4639 130° Southeast 274 315 8,100 -842 Descending Atlanta Center
Sun 05:09:56 PM 35.4831 -81.3864 124° Southeast 284 327 7,300 -550 Descending Atlanta Center
Sun 05:10:56 PM 35.4564 -81.3081 113° Southeast 258 297 7,000 -500 Descending Atlanta Center
Sun 05:11:56 PM 35.4378 -81.2322 107° East 238 274 6,300 -850 Descending Atlanta Center
Sun 05:12:56 PM 35.4194 -81.1614 108° East 228 262 5,300 -1,008 Descending Atlanta Center
Sun 05:14:01 PM 35.3967 -81.0808 109° East 214 246 4,200 -857 Descending Atlanta Center
Sun 05:15:02 PM 35.3661 -81.0233 123° Southeast 176 203 3,500 -689 Descending Atlanta Center

Login

Don't have an account? Register now (free) for customized features, flight alerts, and more!